createdAt,value
2023-09-17T00:01:01.597Z,100.00
2023-09-17T00:02:05.311Z,100.00
2023-09-17T00:03:09.467Z,100.00
2023-09-17T00:04:12.464Z,100.00
2023-09-17T00:05:15.664Z,100.00
2023-09-17T00:06:18.816Z,100.00
2023-09-17T00:07:22.203Z,100.00
2023-09-17T00:08:25.271Z,100.00
2023-09-17T00:09:28.186Z,100.00
2023-09-17T00:10:31.647Z,100.00
2023-09-17T00:11:34.574Z,100.00
2023-09-17T00:12:37.884Z,100.00
2023-09-17T00:13:41.070Z,100.00
2023-09-17T00:14:44.395Z,100.00
2023-09-17T00:15:47.306Z,100.00
2023-09-17T00:16:50.524Z,100.00
2023-09-17T00:17:54.731Z,100.00
2023-09-17T00:18:58.792Z,100.00
2023-09-17T00:20:01.716Z,100.00
2023-09-17T00:21:07.473Z,100.00
2023-09-17T00:22:12.936Z,100.00
2023-09-17T00:23:16.338Z,100.00
2023-09-17T00:24:19.308Z,100.00
2023-09-17T00:25:22.366Z,100.00
2023-09-17T00:26:25.186Z,100.00
2023-09-17T00:27:28.422Z,100.00
2023-09-17T00:28:31.728Z,100.00
2023-09-17T00:29:34.773Z,100.00
2023-09-17T00:30:37.942Z,100.00
2023-09-17T00:31:40.674Z,100.00
2023-09-17T00:32:43.497Z,100.00
2023-09-17T00:33:46.893Z,100.00
2023-09-17T00:34:50.053Z,100.00
2023-09-17T00:35:53.096Z,100.00
2023-09-17T00:36:56.117Z,100.00
2023-09-17T00:37:59.075Z,100.00
2023-09-17T00:39:03.979Z,100.00
2023-09-17T00:40:07.698Z,100.00
2023-09-17T00:41:10.450Z,100.00
2023-09-17T00:42:13.524Z,100.00
2023-09-17T00:43:16.312Z,100.00
2023-09-17T00:44:19.589Z,100.00
2023-09-17T00:45:22.582Z,100.00
2023-09-17T00:46:26.102Z,100.00
2023-09-17T00:47:29.705Z,100.00
2023-09-17T00:48:33.016Z,100.00
2023-09-17T00:49:36.193Z,100.00
2023-09-17T00:50:40.716Z,100.00
2023-09-17T00:51:44.721Z,100.00
2023-09-17T00:52:47.464Z,100.00
2023-09-17T00:53:50.490Z,100.00
2023-09-17T00:54:55.523Z,100.00
2023-09-17T00:55:59.897Z,100.00
2023-09-17T00:57:04.231Z,100.00
2023-09-17T00:58:07.374Z,100.00
2023-09-17T00:59:11.690Z,100.00
2023-09-17T01:00:15.658Z,100.00
2023-09-17T01:01:21.376Z,100.00
2023-09-17T01:02:27.686Z,100.00
2023-09-17T01:03:32.311Z,100.00
2023-09-17T01:04:37.924Z,100.00
2023-09-17T01:05:44.610Z,100.00
2023-09-17T01:06:48.174Z,100.00
2023-09-17T01:07:51.346Z,100.00
2023-09-17T01:08:54.744Z,100.00
2023-09-17T01:09:57.841Z,100.00
2023-09-17T01:11:03.715Z,100.00
2023-09-17T01:12:07.592Z,100.00
2023-09-17T01:13:11.352Z,100.00
2023-09-17T01:14:16.894Z,100.00
2023-09-17T01:15:20.376Z,100.00
2023-09-17T01:16:25.040Z,100.00
2023-09-17T01:17:28.777Z,100.00
2023-09-17T01:18:31.826Z,100.00
2023-09-17T01:19:36.051Z,100.00
2023-09-17T01:20:51.829Z,100.00
2023-09-17T01:22:05.076Z,100.00
2023-09-17T01:23:22.881Z,100.00
2023-09-17T01:24:31.778Z,100.00
2023-09-17T01:25:55.740Z,100.00
2023-09-17T01:27:02.934Z,100.00
2023-09-17T01:28:08.127Z,100.00
2023-09-17T01:29:14.779Z,100.00
2023-09-17T01:30:17.540Z,100.00
2023-09-17T01:31:21.812Z,100.00
2023-09-17T01:32:25.621Z,100.00
2023-09-17T01:33:29.389Z,100.00
2023-09-17T01:34:34.251Z,100.00
2023-09-17T01:36:21.367Z,100.00
2023-09-17T01:37:37.774Z,100.00
2023-09-17T01:39:06.428Z,100.00
2023-09-17T01:40:15.591Z,100.00
2023-09-17T01:41:20.220Z,100.00
2023-09-17T01:42:24.622Z,100.00
2023-09-17T01:43:27.825Z,100.00
2023-09-17T01:44:31.785Z,100.00
2023-09-17T01:45:36.260Z,100.00
2023-09-17T01:46:42.286Z,100.00
2023-09-17T01:47:50.226Z,100.00
2023-09-17T01:48:54.614Z,100.00
2023-09-17T01:49:58.775Z,100.00
2023-09-17T01:51:02.055Z,100.00
2023-09-17T01:52:05.954Z,100.00
2023-09-17T01:53:09.598Z,100.00
2023-09-17T01:54:12.851Z,100.00
2023-09-17T01:55:16.520Z,100.00
2023-09-17T01:56:19.500Z,100.00
2023-09-17T01:57:22.412Z,100.00
2023-09-17T01:58:25.443Z,100.00
2023-09-17T01:59:28.417Z,100.00
2023-09-17T02:00:33.216Z,100.00
2023-09-17T02:01:36.306Z,100.00
2023-09-17T02:02:39.355Z,100.00
2023-09-17T02:03:42.531Z,100.00
2023-09-17T02:04:45.531Z,100.00
2023-09-17T02:05:48.301Z,100.00
2023-09-17T02:06:55.141Z,100.00
2023-09-17T02:07:58.030Z,100.00
2023-09-17T02:09:01.171Z,100.00
2023-09-17T02:10:04.392Z,100.00
2023-09-17T02:11:07.712Z,100.00
2023-09-17T02:12:11.002Z,100.00
2023-09-17T02:13:13.782Z,100.00
2023-09-17T02:14:17.867Z,100.00
2023-09-17T02:15:21.161Z,100.00
2023-09-17T02:16:24.501Z,100.00
2023-09-17T02:17:27.764Z,100.00
2023-09-17T02:18:31.035Z,100.00
2023-09-17T02:19:33.716Z,100.00
2023-09-17T02:20:40.548Z,100.00
2023-09-17T02:21:44.061Z,100.00
2023-09-17T02:22:47.024Z,100.00
2023-09-17T02:23:50.617Z,100.00
2023-09-17T02:24:53.883Z,100.00
2023-09-17T02:25:57.560Z,100.00
2023-09-17T02:27:00.756Z,100.00
2023-09-17T02:28:03.755Z,100.00
2023-09-17T02:29:07.770Z,100.00
2023-09-17T02:30:11.054Z,100.00
2023-09-17T02:31:14.867Z,100.00
2023-09-17T02:32:18.040Z,100.00
2023-09-17T02:33:20.774Z,100.00
2023-09-17T02:34:24.063Z,100.00
2023-09-17T02:35:26.816Z,100.00
2023-09-17T02:36:29.457Z,100.00
2023-09-17T02:37:32.335Z,100.00
2023-09-17T02:38:35.084Z,100.00
2023-09-17T02:39:38.313Z,100.00
2023-09-17T02:40:44.608Z,100.00
2023-09-17T02:41:47.551Z,100.00
2023-09-17T02:42:50.906Z,100.00
2023-09-17T02:43:54.297Z,100.00
2023-09-17T02:44:58.250Z,100.00
2023-09-17T02:46:01.457Z,100.00
2023-09-17T02:47:04.468Z,100.00
2023-09-17T02:48:07.560Z,100.00
2023-09-17T02:49:11.023Z,100.00
2023-09-17T02:50:14.188Z,100.00
2023-09-17T02:51:16.943Z,100.00
2023-09-17T02:52:19.715Z,100.00
2023-09-17T02:53:22.700Z,100.00
2023-09-17T02:54:25.647Z,100.00
2023-09-17T02:55:28.863Z,100.00
2023-09-17T02:56:31.776Z,100.00
2023-09-17T02:57:34.680Z,100.00
2023-09-17T02:58:39.593Z,100.00
2023-09-17T02:59:42.565Z,100.00
2023-09-17T03:00:46.073Z,100.00
2023-09-17T03:01:49.767Z,100.00
2023-09-17T03:02:55.952Z,100.00
2023-09-17T03:03:59.284Z,100.00
2023-09-17T03:05:02.206Z,100.00
2023-09-17T03:06:07.013Z,100.00
2023-09-17T03:07:11.439Z,100.00
2023-09-17T03:08:16.186Z,100.00
2023-09-17T03:09:21.184Z,100.00
2023-09-17T03:10:25.826Z,100.00
2023-09-17T03:11:29.961Z,100.00
2023-09-17T03:12:33.776Z,100.00
2023-09-17T03:13:37.673Z,100.00
2023-09-17T03:14:42.360Z,100.00
2023-09-17T03:15:45.877Z,100.00
2023-09-17T03:16:50.009Z,100.00
2023-09-17T03:17:53.388Z,100.00
2023-09-17T03:18:57.012Z,100.00
2023-09-17T03:19:59.860Z,100.00
2023-09-17T03:21:06.599Z,100.00
2023-09-17T03:22:09.867Z,100.00
2023-09-17T03:23:13.463Z,100.00
2023-09-17T03:24:18.016Z,100.00
2023-09-17T03:25:21.052Z,100.00
2023-09-17T03:26:25.844Z,100.00
2023-09-17T03:27:29.035Z,100.00
2023-09-17T03:28:33.720Z,100.00
2023-09-17T03:29:36.913Z,100.00
2023-09-17T03:30:40.634Z,100.00
2023-09-17T03:31:46.807Z,100.00
2023-09-17T03:33:03.555Z,100.00
2023-09-17T03:34:08.396Z,100.00
2023-09-17T03:35:11.143Z,100.00
2023-09-17T03:36:14.166Z,100.00
2023-09-17T03:37:17.274Z,100.00
2023-09-17T03:38:21.760Z,100.00
2023-09-17T03:39:25.299Z,100.00
2023-09-17T03:40:28.401Z,100.00
2023-09-17T03:41:31.180Z,100.00
2023-09-17T03:42:33.902Z,100.00
2023-09-17T03:43:37.798Z,100.00
2023-09-17T03:44:41.329Z,100.00
2023-09-17T03:45:44.281Z,100.00
2023-09-17T03:46:47.395Z,100.00
2023-09-17T03:47:50.506Z,100.00
2023-09-17T03:48:53.516Z,100.00
2023-09-17T03:49:56.232Z,100.00
2023-09-17T03:50:59.742Z,100.00
2023-09-17T03:52:05.979Z,100.00
2023-09-17T03:53:09.303Z,100.00
2023-09-17T03:54:12.662Z,100.00
2023-09-17T03:55:15.962Z,100.00
2023-09-17T03:56:19.678Z,100.00
2023-09-17T03:57:22.798Z,100.00
2023-09-17T03:58:25.607Z,100.00
2023-09-17T03:59:28.636Z,100.00
2023-09-17T04:00:31.355Z,100.00
2023-09-17T04:01:35.873Z,100.00
2023-09-17T04:02:39.571Z,100.00
2023-09-17T04:03:42.542Z,100.00
2023-09-17T04:04:45.403Z,100.00
2023-09-17T04:05:52.089Z,100.00
2023-09-17T04:06:55.378Z,100.00
2023-09-17T04:07:58.386Z,100.00
2023-09-17T04:09:01.141Z,100.00
2023-09-17T04:10:07.313Z,100.00
2023-09-17T04:11:16.767Z,100.00
2023-09-17T04:12:21.403Z,100.00
2023-09-17T04:13:24.473Z,100.00
2023-09-17T04:14:27.500Z,100.00
2023-09-17T04:15:30.999Z,100.00
2023-09-17T04:16:34.553Z,100.00
2023-09-17T04:17:37.798Z,100.00
2023-09-17T04:18:41.031Z,100.00
2023-09-17T04:19:44.129Z,100.00
2023-09-17T04:20:48.938Z,100.00
2023-09-17T04:21:51.825Z,100.00
2023-09-17T04:22:55.183Z,100.00
2023-09-17T04:23:58.061Z,100.00
2023-09-17T04:25:00.977Z,100.00
2023-09-17T04:26:04.092Z,100.00
2023-09-17T04:27:07.138Z,100.00
2023-09-17T04:28:10.375Z,100.00
2023-09-17T04:29:13.430Z,100.00
2023-09-17T04:30:20.037Z,100.00
2023-09-17T04:31:23.288Z,100.00
2023-09-17T04:32:26.344Z,100.00
2023-09-17T04:33:29.664Z,100.00
2023-09-17T04:34:33.388Z,100.00
2023-09-17T04:35:36.472Z,100.00
2023-09-17T04:36:39.346Z,100.00
2023-09-17T04:37:42.178Z,100.00
2023-09-17T04:38:45.360Z,100.00
2023-09-17T04:39:50.642Z,100.00
2023-09-17T04:40:53.405Z,100.00
2023-09-17T04:41:56.301Z,100.00
2023-09-17T04:42:59.386Z,100.00
2023-09-17T04:44:04.972Z,100.00
2023-09-17T04:45:11.167Z,100.00
2023-09-17T04:46:14.799Z,100.00
2023-09-17T04:47:18.277Z,100.00
2023-09-17T04:48:21.258Z,100.00
2023-09-17T04:49:24.436Z,100.00
2023-09-17T04:50:27.749Z,100.00
2023-09-17T04:51:30.717Z,100.00
2023-09-17T04:52:33.389Z,100.00
2023-09-17T04:53:36.267Z,100.00
2023-09-17T04:54:39.974Z,100.00
2023-09-17T04:55:42.975Z,100.00
2023-09-17T04:56:45.865Z,100.00
2023-09-17T04:57:48.545Z,100.00
2023-09-17T04:58:51.548Z,100.00
2023-09-17T04:59:55.690Z,100.00
2023-09-17T05:01:00.475Z,100.00
2023-09-17T05:02:03.637Z,100.00
2023-09-17T05:03:07.148Z,100.00
2023-09-17T05:04:10.913Z,100.00
2023-09-17T05:05:14.547Z,100.00
2023-09-17T05:06:17.518Z,100.00
2023-09-17T05:07:20.200Z,100.00
2023-09-17T05:08:23.614Z,100.00
2023-09-17T05:09:27.387Z,100.00
2023-09-17T05:10:30.417Z,100.00
2023-09-17T05:11:33.127Z,100.00
2023-09-17T05:12:35.893Z,100.00
2023-09-17T05:13:38.961Z,100.00
2023-09-17T05:14:43.854Z,100.00
2023-09-17T05:15:47.343Z,100.00
2023-09-17T05:16:50.288Z,100.00
2023-09-17T05:17:53.301Z,100.00
2023-09-17T05:18:55.993Z,100.00
2023-09-17T05:19:59.677Z,100.00
2023-09-17T05:21:02.955Z,100.00
2023-09-17T05:22:05.921Z,100.00
2023-09-17T05:23:09.140Z,100.00
2023-09-17T05:24:12.648Z,100.00
2023-09-17T05:25:15.923Z,100.00
2023-09-17T05:26:19.246Z,100.00
2023-09-17T05:27:21.967Z,100.00
2023-09-17T05:28:26.640Z,100.00
2023-09-17T05:29:29.716Z,100.00
2023-09-17T05:30:33.000Z,100.00
2023-09-17T05:31:36.298Z,100.00
2023-09-17T05:32:39.353Z,100.00
2023-09-17T05:33:42.384Z,100.00
2023-09-17T05:34:45.567Z,100.00
2023-09-17T05:35:49.141Z,100.00
2023-09-17T05:36:52.349Z,100.00
2023-09-17T05:37:55.216Z,100.00
2023-09-17T05:38:59.012Z,100.00
2023-09-17T05:40:02.244Z,100.00
2023-09-17T05:41:05.438Z,100.00
2023-09-17T05:42:09.022Z,100.00
2023-09-17T05:43:12.217Z,100.00
2023-09-17T05:44:15.202Z,100.00
2023-09-17T05:45:19.201Z,100.00
2023-09-17T05:46:22.297Z,100.00
2023-09-17T05:47:25.565Z,100.00
2023-09-17T05:48:29.381Z,100.00
2023-09-17T05:49:32.373Z,100.00
2023-09-17T05:50:35.598Z,100.00
2023-09-17T05:51:38.544Z,100.00
2023-09-17T05:52:41.831Z,100.00
2023-09-17T05:53:44.865Z,100.00
2023-09-17T05:54:48.040Z,100.00
2023-09-17T05:55:51.684Z,100.00
2023-09-17T05:56:55.210Z,100.00
2023-09-17T05:57:58.772Z,100.00
2023-09-17T05:59:02.033Z,100.00
2023-09-17T06:00:05.783Z,100.00
2023-09-17T06:01:17.288Z,100.00
2023-09-17T06:02:20.954Z,100.00
2023-09-17T06:03:24.654Z,100.00
2023-09-17T06:04:28.923Z,100.00
2023-09-17T06:05:31.704Z,100.00
2023-09-17T06:06:34.390Z,100.00
2023-09-17T06:07:37.680Z,100.00
2023-09-17T06:08:40.695Z,100.00
2023-09-17T06:09:43.375Z,100.00
2023-09-17T06:10:46.507Z,100.00
2023-09-17T06:11:51.443Z,100.00
2023-09-17T06:12:54.797Z,100.00
2023-09-17T06:13:58.070Z,100.00
2023-09-17T06:15:02.449Z,100.00
2023-09-17T06:16:05.426Z,100.00
2023-09-17T06:17:08.503Z,100.00
2023-09-17T06:18:11.740Z,100.00
2023-09-17T06:19:15.935Z,100.00
2023-09-17T06:20:19.656Z,100.00
2023-09-17T06:21:22.785Z,100.00
2023-09-17T06:22:27.059Z,100.00
2023-09-17T06:23:30.037Z,100.00
2023-09-17T06:24:33.502Z,100.00
2023-09-17T06:25:36.454Z,100.00
2023-09-17T06:26:39.095Z,100.00
2023-09-17T06:27:41.817Z,100.00
2023-09-17T06:28:45.099Z,100.00
2023-09-17T06:29:48.017Z,100.00
2023-09-17T06:30:51.056Z,100.00
2023-09-17T06:31:53.885Z,100.00
2023-09-17T06:32:57.197Z,100.00
2023-09-17T06:34:00.861Z,100.00
2023-09-17T06:35:04.351Z,100.00
2023-09-17T06:36:07.286Z,100.00
2023-09-17T06:37:11.184Z,100.00
2023-09-17T06:38:14.099Z,100.00
2023-09-17T06:39:18.515Z,100.00
2023-09-17T06:40:21.587Z,100.00
2023-09-17T06:41:25.013Z,100.00
2023-09-17T06:42:27.833Z,100.00
2023-09-17T06:43:32.076Z,100.00
2023-09-17T06:44:35.444Z,100.00
2023-09-17T06:45:38.406Z,100.00
2023-09-17T06:46:41.267Z,100.00
2023-09-17T06:47:44.439Z,100.00
2023-09-17T06:48:47.417Z,100.00
2023-09-17T06:49:50.881Z,100.00
2023-09-17T06:50:53.891Z,100.00
2023-09-17T06:51:56.909Z,100.00
2023-09-17T06:52:59.754Z,100.00
2023-09-17T06:54:02.767Z,100.00
2023-09-17T06:55:06.091Z,100.00
2023-09-17T06:56:12.192Z,100.00
2023-09-17T06:57:15.086Z,100.00
2023-09-17T06:58:18.123Z,100.00
2023-09-17T06:59:21.036Z,100.00
2023-09-17T07:00:24.219Z,100.00
2023-09-17T07:01:27.097Z,100.00
2023-09-17T07:02:30.084Z,100.00
2023-09-17T07:03:33.576Z,100.00
2023-09-17T07:04:36.255Z,100.00
2023-09-17T07:05:39.552Z,100.00
2023-09-17T07:06:42.601Z,100.00
2023-09-17T07:07:45.545Z,100.00
2023-09-17T07:08:48.678Z,100.00
2023-09-17T07:09:51.354Z,100.00
2023-09-17T07:10:54.634Z,100.00
2023-09-17T07:11:57.534Z,100.00
2023-09-17T07:13:00.519Z,100.00
2023-09-17T07:14:10.555Z,100.00
2023-09-17T07:15:14.092Z,100.00
2023-09-17T07:16:19.232Z,100.00
2023-09-17T07:17:22.232Z,100.00
2023-09-17T07:18:33.013Z,100.00
2023-09-17T07:19:36.088Z,100.00
2023-09-17T07:20:38.936Z,100.00
2023-09-17T07:21:42.234Z,100.00
2023-09-17T07:22:49.475Z,100.00
2023-09-17T07:23:53.542Z,100.00
2023-09-17T07:24:59.989Z,100.00
2023-09-17T07:26:04.994Z,100.00
2023-09-17T07:27:08.212Z,100.00
2023-09-17T07:28:11.166Z,100.00
2023-09-17T07:29:14.099Z,100.00
2023-09-17T07:30:18.480Z,100.00
2023-09-17T07:31:21.453Z,100.00
2023-09-17T07:32:30.790Z,100.00
2023-09-17T07:33:33.446Z,100.00
2023-09-17T07:34:36.742Z,100.00
2023-09-17T07:35:40.432Z,100.00
2023-09-17T07:36:43.146Z,100.00
2023-09-17T07:37:51.300Z,100.00
2023-09-17T07:38:54.744Z,100.00
2023-09-17T07:40:00.334Z,100.00
2023-09-17T07:41:03.608Z,100.00
2023-09-17T07:42:06.915Z,100.00
2023-09-17T07:43:10.847Z,100.00
2023-09-17T07:44:13.813Z,100.00
2023-09-17T07:45:16.618Z,100.00
2023-09-17T07:46:19.591Z,100.00
2023-09-17T07:47:22.674Z,100.00
2023-09-17T07:48:26.321Z,100.00
2023-09-17T07:49:30.423Z,100.00
2023-09-17T07:50:33.371Z,100.00
2023-09-17T07:51:36.225Z,100.00
2023-09-17T07:52:40.996Z,100.00
2023-09-17T07:53:44.454Z,100.00
2023-09-17T07:54:47.398Z,100.00
2023-09-17T07:55:50.335Z,100.00
2023-09-17T07:56:53.009Z,100.00
2023-09-17T07:57:58.863Z,100.00
2023-09-17T07:59:01.919Z,100.00
2023-09-17T08:00:07.329Z,100.00
2023-09-17T08:01:16.357Z,100.00
2023-09-17T08:02:19.574Z,100.00
2023-09-17T08:03:22.593Z,100.00
2023-09-17T08:04:26.775Z,100.00
2023-09-17T08:05:29.596Z,100.00
2023-09-17T08:06:35.927Z,100.00
2023-09-17T08:07:41.554Z,100.00
2023-09-17T08:08:47.307Z,100.00
2023-09-17T08:09:50.444Z,100.00
2023-09-17T08:10:54.033Z,100.00
2023-09-17T08:11:57.074Z,100.00
2023-09-17T08:13:00.177Z,100.00
2023-09-17T08:14:03.055Z,100.00
2023-09-17T08:15:06.169Z,100.00
2023-09-17T08:16:09.097Z,100.00
2023-09-17T08:17:11.751Z,100.00
2023-09-17T08:18:15.002Z,100.00
2023-09-17T08:19:17.799Z,100.00
2023-09-17T08:20:21.230Z,100.00
2023-09-17T08:21:25.088Z,100.00
2023-09-17T08:22:28.577Z,100.00
2023-09-17T08:23:32.218Z,100.00
2023-09-17T08:24:35.184Z,100.00
2023-09-17T08:25:38.247Z,100.00
2023-09-17T08:26:41.372Z,100.00
2023-09-17T08:27:44.595Z,100.00
2023-09-17T08:28:50.605Z,100.00
2023-09-17T08:29:53.557Z,100.00
2023-09-17T08:30:56.486Z,100.00
2023-09-17T08:31:59.484Z,100.00
2023-09-17T08:33:02.633Z,100.00
2023-09-17T08:34:05.915Z,100.00
2023-09-17T08:35:09.281Z,100.00
2023-09-17T08:36:12.985Z,100.00
2023-09-17T08:37:15.635Z,100.00
2023-09-17T08:38:19.944Z,100.00
2023-09-17T08:39:23.231Z,100.00
2023-09-17T08:40:31.295Z,100.00
2023-09-17T08:41:39.900Z,100.00
2023-09-17T08:42:43.825Z,100.00
2023-09-17T08:43:47.688Z,100.00
2023-09-17T08:44:52.097Z,100.00
2023-09-17T08:45:55.995Z,100.00
2023-09-17T08:47:01.154Z,100.00
2023-09-17T08:48:04.094Z,100.00
2023-09-17T08:49:06.879Z,100.00
2023-09-17T08:50:10.628Z,100.00
2023-09-17T08:51:16.841Z,100.00
2023-09-17T08:52:21.967Z,100.00
2023-09-17T08:53:32.223Z,100.00
2023-09-17T08:54:40.722Z,100.00
2023-09-17T08:55:46.958Z,100.00
2023-09-17T08:56:53.725Z,100.00
2023-09-17T08:58:19.002Z,100.00
2023-09-17T08:59:30.773Z,100.00
2023-09-17T09:00:37.063Z,100.00
2023-09-17T09:01:43.957Z,100.00
2023-09-17T09:02:57.268Z,100.00
2023-09-17T09:04:01.897Z,100.00
2023-09-17T09:05:05.330Z,100.00
2023-09-17T09:06:10.682Z,100.00
2023-09-17T09:07:16.210Z,100.00
2023-09-17T09:08:19.195Z,100.00
2023-09-17T09:09:25.051Z,100.00
2023-09-17T09:10:28.283Z,100.00
2023-09-17T09:11:32.444Z,100.00
2023-09-17T09:12:37.900Z,100.00
2023-09-17T09:13:42.541Z,100.00
2023-09-17T09:14:46.153Z,100.00
2023-09-17T09:15:49.461Z,100.00
2023-09-17T09:16:52.414Z,100.00
2023-09-17T09:17:56.601Z,100.00
2023-09-17T09:19:01.071Z,100.00
2023-09-17T09:20:07.407Z,100.00
2023-09-17T09:21:11.709Z,100.00
2023-09-17T09:22:14.602Z,100.00
2023-09-17T09:23:17.928Z,100.00
2023-09-17T09:24:24.773Z,100.00
2023-09-17T09:25:29.939Z,100.00
2023-09-17T09:26:35.077Z,100.00
2023-09-17T09:27:38.835Z,100.00
2023-09-17T09:28:41.810Z,100.00
2023-09-17T09:29:44.949Z,100.00
2023-09-17T09:30:47.832Z,100.00
2023-09-17T09:31:50.779Z,100.00
2023-09-17T09:32:53.786Z,100.00
2023-09-17T09:34:00.800Z,100.00
2023-09-17T09:35:04.888Z,100.00
2023-09-17T09:36:07.759Z,100.00
2023-09-17T09:37:11.610Z,100.00
2023-09-17T09:38:14.470Z,100.00
2023-09-17T09:39:17.600Z,100.00
2023-09-17T09:40:25.533Z,100.00
2023-09-17T09:41:30.565Z,100.00
2023-09-17T09:42:33.669Z,100.00
2023-09-17T09:43:36.666Z,100.00
2023-09-17T09:44:39.624Z,100.00
2023-09-17T09:45:43.304Z,100.00
2023-09-17T09:46:46.416Z,100.00
2023-09-17T09:47:52.474Z,100.00
2023-09-17T09:49:01.300Z,100.00
2023-09-17T09:50:04.780Z,100.00
2023-09-17T09:51:07.770Z,100.00
2023-09-17T09:52:14.821Z,100.00
2023-09-17T09:53:17.674Z,100.00
2023-09-17T09:54:20.392Z,100.00
2023-09-17T09:55:25.774Z,100.00
2023-09-17T09:56:29.585Z,100.00
2023-09-17T09:57:34.176Z,100.00
2023-09-17T09:58:37.534Z,100.00
2023-09-17T09:59:44.116Z,100.00
2023-09-17T10:00:49.976Z,100.00
2023-09-17T10:01:53.539Z,100.00
2023-09-17T10:02:57.780Z,100.00
2023-09-17T10:04:00.753Z,100.00
2023-09-17T10:05:05.875Z,100.00
2023-09-17T10:06:08.788Z,100.00
2023-09-17T10:07:12.307Z,100.00
2023-09-17T10:08:18.359Z,100.00
2023-09-17T10:09:21.678Z,100.00
2023-09-17T10:10:25.277Z,100.00
2023-09-17T10:11:28.200Z,100.00
2023-09-17T10:12:31.954Z,100.00
2023-09-17T10:13:35.391Z,100.00
2023-09-17T10:14:39.392Z,100.00
2023-09-17T10:15:45.191Z,100.00
2023-09-17T10:16:50.246Z,100.00
2023-09-17T10:17:54.986Z,100.00
2023-09-17T10:18:58.411Z,100.00
2023-09-17T10:20:03.125Z,100.00
2023-09-17T10:21:06.989Z,100.00
2023-09-17T10:22:12.007Z,100.00
2023-09-17T10:23:17.261Z,100.00
2023-09-17T10:24:20.310Z,100.00
2023-09-17T10:25:24.641Z,100.00
2023-09-17T10:26:33.920Z,100.00
2023-09-17T10:27:40.577Z,100.00
2023-09-17T10:28:45.512Z,100.00
2023-09-17T10:29:52.060Z,100.00
2023-09-17T10:30:57.736Z,100.00
2023-09-17T10:32:03.171Z,100.00
2023-09-17T10:33:08.985Z,100.00
2023-09-17T10:34:14.347Z,100.00
2023-09-17T10:35:17.325Z,100.00
2023-09-17T10:36:32.876Z,100.00
2023-09-17T10:37:36.519Z,100.00
2023-09-17T10:38:53.215Z,100.00
2023-09-17T10:39:58.013Z,100.00
2023-09-17T10:41:02.005Z,100.00
2023-09-17T10:42:07.618Z,100.00
2023-09-17T10:43:12.876Z,100.00
2023-09-17T10:44:19.324Z,100.00
2023-09-17T10:45:23.834Z,100.00
2023-09-17T10:46:28.956Z,100.00
2023-09-17T10:47:34.741Z,100.00
2023-09-17T10:48:40.401Z,100.00
2023-09-17T10:49:43.950Z,100.00
2023-09-17T10:50:48.289Z,100.00
2023-09-17T10:51:52.682Z,100.00
2023-09-17T10:52:55.648Z,100.00
2023-09-17T10:53:58.391Z,100.00
2023-09-17T10:55:01.400Z,100.00
2023-09-17T10:56:09.391Z,100.00
2023-09-17T10:57:28.016Z,100.00
2023-09-17T10:58:50.521Z,100.00
2023-09-17T10:59:55.262Z,99.81
2023-09-17T11:01:00.940Z,99.17
2023-09-17T11:02:05.665Z,99.48
2023-09-17T11:03:10.187Z,99.25
2023-09-17T11:04:18.257Z,99.50
2023-09-17T11:05:25.784Z,99.00
2023-09-17T11:06:30.731Z,99.08
2023-09-17T11:07:34.863Z,99.80
2023-09-17T11:08:37.892Z,99.42
2023-09-17T11:09:42.756Z,99.08
2023-09-17T11:10:46.001Z,98.17
2023-09-17T11:11:48.950Z,98.05
2023-09-17T11:12:52.854Z,97.45
2023-09-17T11:13:56.157Z,97.10
2023-09-17T11:14:59.886Z,97.05
2023-09-17T11:16:03.006Z,96.56
2023-09-17T11:17:10.329Z,96.67
2023-09-17T11:18:13.847Z,95.82
2023-09-17T11:19:19.929Z,95.32
2023-09-17T11:20:22.722Z,94.82
2023-09-17T11:21:28.089Z,94.46
2023-09-17T11:22:37.986Z,93.83
2023-09-17T11:23:48.271Z,94.05
2023-09-17T11:24:51.878Z,94.17
2023-09-17T11:25:56.230Z,94.54
2023-09-17T11:27:02.519Z,93.69
2023-09-17T11:28:16.576Z,93.29
2023-09-17T11:29:20.241Z,93.25
2023-09-17T11:30:26.445Z,92.38
2023-09-17T11:31:29.589Z,92.19
2023-09-17T11:32:32.773Z,91.46
2023-09-17T11:33:38.154Z,91.02
2023-09-17T11:34:46.054Z,91.37
2023-09-17T11:35:49.474Z,91.31
2023-09-17T11:36:54.181Z,91.46
2023-09-17T11:37:58.256Z,91.59
2023-09-17T11:39:08.653Z,91.49
2023-09-17T11:40:13.892Z,91.30
2023-09-17T11:41:17.689Z,91.43
2023-09-17T11:42:24.488Z,91.23
2023-09-17T11:43:27.777Z,90.79
2023-09-17T11:44:33.838Z,90.60
2023-09-17T11:45:40.206Z,89.98
2023-09-17T11:46:44.651Z,88.69
2023-09-17T11:47:47.861Z,87.68
2023-09-17T11:48:51.663Z,87.76
2023-09-17T11:49:55.358Z,87.24
2023-09-17T11:51:25.636Z,86.71
2023-09-17T11:52:29.293Z,86.22
2023-09-17T11:53:33.115Z,85.37
2023-09-17T11:54:42.031Z,84.21
2023-09-17T11:55:50.990Z,82.72
2023-09-17T11:56:56.379Z,81.52
2023-09-17T11:58:23.897Z,80.82
2023-09-17T11:59:28.300Z,81.27
2023-09-17T12:00:32.157Z,80.90
2023-09-17T12:01:56.113Z,80.27
2023-09-17T12:03:00.010Z,78.40
2023-09-17T12:04:08.857Z,78.59
2023-09-17T12:05:12.430Z,78.34
2023-09-17T12:06:18.553Z,78.06
2023-09-17T12:07:22.464Z,77.98
2023-09-17T12:08:25.942Z,79.54
2023-09-17T12:09:40.098Z,79.97
2023-09-17T12:10:51.435Z,79.44
2023-09-17T12:11:57.617Z,78.54
2023-09-17T12:13:01.832Z,77.32
2023-09-17T12:14:08.023Z,75.67
2023-09-17T12:15:11.955Z,73.30
2023-09-17T12:16:17.490Z,72.62
2023-09-17T12:17:23.016Z,72.66
2023-09-17T12:18:27.181Z,74.09
2023-09-17T12:19:31.621Z,73.21
2023-09-17T12:20:58.107Z,73.19
2023-09-17T12:22:01.408Z,73.46
2023-09-17T12:23:08.838Z,73.72
2023-09-17T12:25:01.517Z,72.50
2023-09-17T12:26:05.824Z,70.39
2023-09-17T12:27:26.504Z,69.58
2023-09-17T12:28:29.832Z,70.01
2023-09-17T12:29:34.614Z,71.01
2023-09-17T12:30:38.341Z,71.84
2023-09-17T12:31:42.623Z,71.89
2023-09-17T12:32:46.332Z,71.66
2023-09-17T12:33:50.156Z,71.53
2023-09-17T12:34:56.319Z,71.64
2023-09-17T12:35:59.825Z,71.83
2023-09-17T12:37:04.333Z,72.92
2023-09-17T12:38:08.335Z,71.43
2023-09-17T12:39:12.477Z,70.63
2023-09-17T12:40:16.059Z,70.61
2023-09-17T12:41:31.924Z,71.46
2023-09-17T12:42:42.744Z,70.97
2023-09-17T12:43:47.667Z,69.42
2023-09-17T12:44:53.834Z,69.30
2023-09-17T12:45:57.179Z,69.18
2023-09-17T12:47:01.245Z,69.53
2023-09-17T12:48:06.240Z,70.54
2023-09-17T12:49:09.673Z,70.82
2023-09-17T12:50:13.812Z,71.81
2023-09-17T12:51:18.703Z,70.81
2023-09-17T12:52:22.185Z,70.61
2023-09-17T12:53:25.936Z,70.52
2023-09-17T12:54:29.720Z,69.97
2023-09-17T12:55:33.088Z,70.24
2023-09-17T12:56:38.553Z,70.66
2023-09-17T12:57:41.993Z,71.78
2023-09-17T12:58:51.070Z,72.06
2023-09-17T12:59:55.421Z,72.24
2023-09-17T13:01:10.907Z,73.62
2023-09-17T13:02:15.596Z,73.08
2023-09-17T13:03:19.945Z,71.24
2023-09-17T13:04:36.107Z,71.85
2023-09-17T13:05:40.103Z,71.25
2023-09-17T13:06:43.558Z,71.35
2023-09-17T13:07:48.427Z,70.91
2023-09-17T13:08:52.703Z,70.51
2023-09-17T13:10:02.127Z,71.08
2023-09-17T13:11:05.887Z,70.80
2023-09-17T13:12:09.909Z,69.25
2023-09-17T13:13:14.691Z,68.29
2023-09-17T13:14:18.548Z,68.04
2023-09-17T13:15:22.597Z,69.28
2023-09-17T13:16:26.182Z,69.64
2023-09-17T13:17:30.515Z,70.09
2023-09-17T13:18:34.940Z,69.62
2023-09-17T13:19:39.221Z,70.00
2023-09-17T13:20:43.086Z,69.50
2023-09-17T13:21:47.782Z,70.15
2023-09-17T13:22:52.158Z,70.26
2023-09-17T13:24:02.045Z,70.73
2023-09-17T13:25:08.051Z,70.05
2023-09-17T13:26:11.744Z,70.10
2023-09-17T13:27:19.886Z,68.82
2023-09-17T13:28:24.750Z,69.49
2023-09-17T13:29:40.966Z,69.58
2023-09-17T13:30:45.288Z,69.81
2023-09-17T13:31:54.632Z,69.59